sensor_id;sensor_type;location;lat;lon;timestamp;pressure;altitude;pressure_sealevel;temperature;humidity
82476;BME280;72099;43.176;76.872;2024-02-28T00:01:19;90728.16;;;-11.19;69.88
82476;BME280;72099;43.176;76.872;2024-02-28T00:04:20;90739.50;;;-11.08;69.39
82476;BME280;72099;43.176;76.872;2024-02-28T00:07:21;90741.69;;;-10.98;70.24
82476;BME280;72099;43.176;76.872;2024-02-28T00:10:22;90753.03;;;-10.94;68.91
82476;BME280;72099;43.176;76.872;2024-02-28T00:13:23;90751.91;;;-10.92;69.79
82476;BME280;72099;43.176;76.872;2024-02-28T00:16:25;90760.09;;;-10.90;68.34
82476;BME280;72099;43.176;76.872;2024-02-28T00:19:25;90774.34;;;-10.95;69.51
82476;BME280;72099;43.176;76.872;2024-02-28T00:22:26;90768.28;;;-11.01;67.92
82476;BME280;72099;43.176;76.872;2024-02-28T00:25:27;90765.53;;;-11.06;69.49
82476;BME280;72099;43.176;76.872;2024-02-28T00:28:28;90768.22;;;-11.14;68.61
82476;BME280;72099;43.176;76.872;2024-02-28T00:31:29;90771.53;;;-11.14;69.30
82476;BME280;72099;43.176;76.872;2024-02-28T00:34:30;90776.03;;;-11.16;68.61
82476;BME280;72099;43.176;76.872;2024-02-28T00:37:30;90770.94;;;-11.16;68.33
82476;BME280;72099;43.176;76.872;2024-02-28T00:40:31;90752.13;;;-11.28;68.66
82476;BME280;72099;43.176;76.872;2024-02-28T00:43:32;90776.22;;;-11.17;68.55
82476;BME280;72099;43.176;76.872;2024-02-28T00:46:33;90771.09;;;-11.24;68.46
82476;BME280;72099;43.176;76.872;2024-02-28T00:49:34;90764.25;;;-11.30;69.67
82476;BME280;72099;43.176;76.872;2024-02-28T00:52:35;90756.97;;;-11.40;69.30
82476;BME280;72099;43.176;76.872;2024-02-28T00:55:36;90763.59;;;-11.45;68.63
82476;BME280;72099;43.176;76.872;2024-02-28T00:58:37;90756.31;;;-11.48;69.03
82476;BME280;72099;43.176;76.872;2024-02-28T01:01:40;90760.63;;;-11.49;68.87
82476;BME280;72099;43.176;76.872;2024-02-28T01:04:41;90758.88;;;-11.48;69.12
82476;BME280;72099;43.176;76.872;2024-02-28T01:07:42;90769.59;;;-11.46;70.07
82476;BME280;72099;43.176;76.872;2024-02-28T01:10:43;90764.72;;;-11.48;68.54
82476;BME280;72099;43.176;76.872;2024-02-28T01:13:44;90762.75;;;-11.52;69.81
82476;BME280;72099;43.176;76.872;2024-02-28T01:16:45;90764.47;;;-11.60;69.02
82476;BME280;72099;43.176;76.872;2024-02-28T01:19:46;90753.72;;;-11.62;70.10
82476;BME280;72099;43.176;76.872;2024-02-28T01:22:47;90766.06;;;-11.58;69.25
82476;BME280;72099;43.176;76.872;2024-02-28T01:25:48;90761.19;;;-11.53;69.60
82476;BME280;72099;43.176;76.872;2024-02-28T01:28:49;90742.66;;;-11.54;68.82
82476;BME280;72099;43.176;76.872;2024-02-28T01:32:15;90762.88;;;-11.33;69.79
82476;BME280;72099;43.176;76.872;2024-02-28T01:35:15;90746.09;;;-11.27;68.05
82476;BME280;72099;43.176;76.872;2024-02-28T01:38:16;90758.22;;;-11.22;68.58
82476;BME280;72099;43.176;76.872;2024-02-28T01:41:17;90767.38;;;-11.21;69.38
82476;BME280;72099;43.176;76.872;2024-02-28T01:44:18;90760.16;;;-11.24;69.20
82476;BME280;72099;43.176;76.872;2024-02-28T01:47:19;90752.34;;;-11.23;68.47
82476;BME280;72099;43.176;76.872;2024-02-28T01:50:20;90769.00;;;-11.14;69.12
82476;BME280;72099;43.176;76.872;2024-02-28T01:53:21;90772.13;;;-11.18;68.86
82476;BME280;72099;43.176;76.872;2024-02-28T01:56:23;90773.25;;;-11.21;69.55
82476;BME280;72099;43.176;76.872;2024-02-28T01:59:28;90773.88;;;-11.19;69.76
82476;BME280;72099;43.176;76.872;2024-02-28T02:02:30;90776.22;;;-11.17;68.98
82476;BME280;72099;43.176;76.872;2024-02-28T02:05:31;90776.81;;;-11.09;69.22
82476;BME280;72099;43.176;76.872;2024-02-28T02:08:32;90772.97;;;-10.98;68.27
82476;BME280;72099;43.176;76.872;2024-02-28T02:11:34;90774.56;;;-10.90;68.43
82476;BME280;72099;43.176;76.872;2024-02-28T02:14:35;90778.63;;;-10.96;69.06
82476;BME280;72099;43.176;76.872;2024-02-28T02:17:36;90765.97;;;-10.89;68.40
82476;BME280;72099;43.176;76.872;2024-02-28T02:20:44;90775.16;;;-10.88;68.09
82476;BME280;72099;43.176;76.872;2024-02-28T02:23:47;90768.31;;;-10.81;67.89
82476;BME280;72099;43.176;76.872;2024-02-28T02:26:47;90774.81;;;-10.79;68.07
82476;BME280;72099;43.176;76.872;2024-02-28T02:29:51;90770.13;;;-10.68;69.28
82476;BME280;72099;43.176;76.872;2024-02-28T02:33:15;90772.13;;;-10.51;67.71
82476;BME280;72099;43.176;76.872;2024-02-28T02:36:15;90766.47;;;-10.39;68.12
82476;BME280;72099;43.176;76.872;2024-02-28T02:39:16;90758.28;;;-10.22;67.43
82476;BME280;72099;43.176;76.872;2024-02-28T02:42:17;90763.53;;;-10.03;67.21
82476;BME280;72099;43.176;76.872;2024-02-28T02:45:18;90738.69;;;-10.01;68.08
82476;BME280;72099;43.176;76.872;2024-02-28T02:48:19;90743.56;;;-9.80;67.29
82476;BME280;72099;43.176;76.872;2024-02-28T02:51:20;90751.78;;;-9.58;67.50
82476;BME280;72099;43.176;76.872;2024-02-28T02:54:21;90758.00;;;-9.34;67.28
82476;BME280;72099;43.176;76.872;2024-02-28T02:57:22;90757.56;;;-9.18;66.97
82476;BME280;72099;43.176;76.872;2024-02-28T03:00:22;90758.28;;;-8.98;67.62
82476;BME280;72099;43.176;76.872;2024-02-28T03:03:23;90760.78;;;-8.84;67.04
82476;BME280;72099;43.176;76.872;2024-02-28T03:06:24;90759.91;;;-8.65;67.08
82476;BME280;72099;43.176;76.872;2024-02-28T03:09:25;90768.47;;;-8.46;66.69
82476;BME280;72099;43.176;76.872;2024-02-28T03:12:26;90766.16;;;-8.29;65.68
82476;BME280;72099;43.176;76.872;2024-02-28T03:15:27;90768.97;;;-8.06;65.88
82476;BME280;72099;43.176;76.872;2024-02-28T03:18:28;90753.16;;;-7.90;65.82
82476;BME280;72099;43.176;76.872;2024-02-28T03:21:28;90765.72;;;-7.45;65.13
82476;BME280;72099;43.176;76.872;2024-02-28T03:24:29;90757.63;;;-6.99;64.68
82476;BME280;72099;43.176;76.872;2024-02-28T03:27:30;90755.84;;;-6.62;63.86
82476;BME280;72099;43.176;76.872;2024-02-28T03:30:31;90751.94;;;-6.34;63.07
82476;BME280;72099;43.176;76.872;2024-02-28T03:33:32;90751.25;;;-6.11;63.17
82476;BME280;72099;43.176;76.872;2024-02-28T03:36:35;90751.41;;;-5.95;62.63
82476;BME280;72099;43.176;76.872;2024-02-28T03:39:35;90755.44;;;-5.64;62.44
82476;BME280;72099;43.176;76.872;2024-02-28T03:42:36;90741.19;;;-5.13;61.81
82476;BME280;72099;43.176;76.872;2024-02-28T03:45:38;90750.63;;;-4.66;59.83
82476;BME280;72099;43.176;76.872;2024-02-28T03:48:41;90762.56;;;-4.32;59.95
82476;BME280;72099;43.176;76.872;2024-02-28T03:51:42;90766.75;;;-4.42;58.96
82476;BME280;72099;43.176;76.872;2024-02-28T03:54:43;90759.63;;;-4.52;59.09
82476;BME280;72099;43.176;76.872;2024-02-28T03:57:48;90768.66;;;-4.50;60.43
82476;BME280;72099;43.176;76.872;2024-02-28T04:00:52;90760.88;;;-4.55;59.08
82476;BME280;72099;43.176;76.872;2024-02-28T04:03:52;90761.94;;;-4.39;59.31
82476;BME280;72099;43.176;76.872;2024-02-28T04:06:53;90756.78;;;-3.65;59.41
82476;BME280;72099;43.176;76.872;2024-02-28T04:09:54;90754.78;;;-2.74;57.60
82476;BME280;72099;43.176;76.872;2024-02-28T04:12:55;90748.59;;;-1.86;55.92
82476;BME280;72099;43.176;76.872;2024-02-28T04:15:56;90749.47;;;-1.48;54.22
82476;BME280;72099;43.176;76.872;2024-02-28T04:18:57;90743.81;;;-1.45;53.93
82476;BME280;72099;43.176;76.872;2024-02-28T04:21:58;90749.50;;;-1.11;53.81
82476;BME280;72099;43.176;76.872;2024-02-28T04:24:59;90730.03;;;-0.86;52.70
82476;BME280;72099;43.176;76.872;2024-02-28T04:27:59;90738.00;;;-0.51;52.32
82476;BME280;72099;43.176;76.872;2024-02-28T04:31:00;90715.22;;;0.14;50.75
82476;BME280;72099;43.176;76.872;2024-02-28T04:34:01;90738.56;;;0.65;49.80
82476;BME280;72099;43.176;76.872;2024-02-28T04:37:02;90739.09;;;1.07;48.76
82476;BME280;72099;43.176;76.872;2024-02-28T04:40:03;90743.69;;;1.41;47.62
82476;BME280;72099;43.176;76.872;2024-02-28T04:43:05;90740.28;;;1.61;47.11
82476;BME280;72099;43.176;76.872;2024-02-28T04:46:06;90741.53;;;1.84;46.97
82476;BME280;72099;43.176;76.872;2024-02-28T04:49:07;90747.59;;;2.18;45.30
82476;BME280;72099;43.176;76.872;2024-02-28T04:52:32;90734.34;;;3.03;44.53
82476;BME280;72099;43.176;76.872;2024-02-28T04:55:33;90732.00;;;3.65;43.25
82476;BME280;72099;43.176;76.872;2024-02-28T04:58:35;90731.81;;;3.80;42.95
82476;BME280;72099;43.176;76.872;2024-02-28T05:01:35;90734.28;;;4.14;42.76
82476;BME280;72099;43.176;76.872;2024-02-28T05:04:39;90732.84;;;4.03;41.52
82476;BME280;72099;43.176;76.872;2024-02-28T05:07:40;90730.16;;;3.65;42.17
82476;BME280;72099;43.176;76.872;2024-02-28T05:10:41;90730.56;;;3.48;41.82
82476;BME280;72099;43.176;76.872;2024-02-28T05:13:42;90732.75;;;3.65;42.06
82476;BME280;72099;43.176;76.872;2024-02-28T05:16:43;90719.91;;;3.74;41.29
82476;BME280;72099;43.176;76.872;2024-02-28T05:19:44;90722.88;;;3.62;41.05
82476;BME280;72099;43.176;76.872;2024-02-28T05:22:45;90732.97;;;3.93;40.41
82476;BME280;72099;43.176;76.872;2024-02-28T05:25:46;90737.88;;;4.61;40.44
82476;BME280;72099;43.176;76.872;2024-02-28T05:28:47;90735.22;;;5.17;39.49
82476;BME280;72099;43.176;76.872;2024-02-28T05:31:48;90734.19;;;5.78;38.93
82476;BME280;72099;43.176;76.872;2024-02-28T05:34:49;90741.75;;;5.80;37.80
82476;BME280;72099;43.176;76.872;2024-02-28T05:37:53;90740.47;;;5.63;38.48
82476;BME280;72099;43.176;76.872;2024-02-28T05:40:55;90733.19;;;5.93;37.72
82476;BME280;72099;43.176;76.872;2024-02-28T05:43:56;90729.78;;;6.20;37.15
82476;BME280;72099;43.176;76.872;2024-02-28T05:46:57;90734.91;;;6.53;37.57
82476;BME280;72099;43.176;76.872;2024-02-28T05:49:57;90733.78;;;6.81;36.62
82476;BME280;72099;43.176;76.872;2024-02-28T05:52:58;90722.06;;;7.01;35.27
82476;BME280;72099;43.176;76.872;2024-02-28T05:55:59;90718.50;;;7.64;35.09
82476;BME280;72099;43.176;76.872;2024-02-28T05:59:00;90719.38;;;8.21;33.76
82476;BME280;72099;43.176;76.872;2024-02-28T06:02:01;90722.38;;;8.37;33.14
82476;BME280;72099;43.176;76.872;2024-02-28T06:05:02;90728.34;;;8.86;32.73
82476;BME280;72099;43.176;76.872;2024-02-28T06:08:03;90723.09;;;9.38;31.05
82476;BME280;72099;43.176;76.872;2024-02-28T06:11:04;90721.16;;;10.37;31.29
82476;BME280;72099;43.176;76.872;2024-02-28T06:14:08;90710.72;;;11.41;30.49
82476;BME280;72099;43.176;76.872;2024-02-28T06:17:09;90714.16;;;12.08;27.94
82476;BME280;72099;43.176;76.872;2024-02-28T06:20:10;90715.63;;;12.42;27.82
82476;BME280;72099;43.176;76.872;2024-02-28T06:23:11;90715.13;;;13.25;27.98
82476;BME280;72099;43.176;76.872;2024-02-28T06:26:12;90713.91;;;13.91;27.88
82476;BME280;72099;43.176;76.872;2024-02-28T06:29:17;90710.75;;;13.30;27.14
82476;BME280;72099;43.176;76.872;2024-02-28T06:32:17;90712.41;;;12.97;27.31
82476;BME280;72099;43.176;76.872;2024-02-28T06:35:18;90712.41;;;12.36;27.20
82476;BME280;72099;43.176;76.872;2024-02-28T06:38:19;90697.13;;;12.05;27.51
82476;BME280;72099;43.176;76.872;2024-02-28T06:41:20;90703.53;;;12.29;27.32
82476;BME280;72099;43.176;76.872;2024-02-28T06:44:21;90698.66;;;12.06;27.57
82476;BME280;72099;43.176;76.872;2024-02-28T06:47:22;90710.13;;;12.47;27.50
82476;BME280;72099;43.176;76.872;2024-02-28T06:50:23;90701.78;;;12.57;27.31
82476;BME280;72099;43.176;76.872;2024-02-28T06:53:23;90708.13;;;12.20;27.66
82476;BME280;72099;43.176;76.872;2024-02-28T06:56:24;90712.13;;;11.93;27.24
82476;BME280;72099;43.176;76.872;2024-02-28T06:59:25;90710.91;;;11.57;27.24
82476;BME280;72099;43.176;76.872;2024-02-28T07:02:26;90710.91;;;10.74;27.94
82476;BME280;72099;43.176;76.872;2024-02-28T07:05:27;90714.75;;;10.09;28.87
82476;BME280;72099;43.176;76.872;2024-02-28T07:08:28;90718.91;;;9.37;29.50
82476;BME280;72099;43.176;76.872;2024-02-28T07:11:29;90716.00;;;8.95;30.17
82476;BME280;72099;43.176;76.872;2024-02-28T07:14:29;90713.66;;;8.68;30.42
82476;BME280;72099;43.176;76.872;2024-02-28T07:17:31;90721.03;;;8.09;30.76
82476;BME280;72099;43.176;76.872;2024-02-28T07:20:32;90698.69;;;7.80;31.17
82476;BME280;72099;43.176;76.872;2024-02-28T07:23:33;90709.84;;;7.32;32.00
82476;BME280;72099;43.176;76.872;2024-02-28T07:26:33;90699.16;;;7.20;31.86
82476;BME280;72099;43.176;76.872;2024-02-28T07:29:37;90704.47;;;7.37;32.68
82476;BME280;72099;43.176;76.872;2024-02-28T07:36:03;90705.78;;;8.11;31.89
82476;BME280;72099;43.176;76.872;2024-02-28T07:39:04;90695.28;;;8.11;31.88
82476;BME280;72099;43.176;76.872;2024-02-28T07:42:05;90700.06;;;7.69;32.98
82476;BME280;72099;43.176;76.872;2024-02-28T07:45:06;90702.63;;;7.38;33.00
82476;BME280;72099;43.176;76.872;2024-02-28T07:48:09;90714.47;;;7.13;32.75
82476;BME280;72099;43.176;76.872;2024-02-28T07:51:09;90701.63;;;6.80;32.98
82476;BME280;72099;43.176;76.872;2024-02-28T07:54:12;90716.03;;;6.42;33.97
82476;BME280;72099;43.176;76.872;2024-02-28T07:57:14;90704.25;;;6.17;33.85
82476;BME280;72099;43.176;76.872;2024-02-28T08:00:16;90707.53;;;6.09;35.05
82476;BME280;72099;43.176;76.872;2024-02-28T08:03:19;90709.59;;;6.26;34.34
82476;BME280;72099;43.176;76.872;2024-02-28T08:06:20;90716.53;;;6.30;34.91
82476;BME280;72099;43.176;76.872;2024-02-28T08:09:22;90712.16;;;6.53;34.67
82476;BME280;72099;43.176;76.872;2024-02-28T08:12:23;90707.50;;;6.50;34.40
82476;BME280;72099;43.176;76.872;2024-02-28T08:15:23;90704.75;;;6.19;34.62
82476;BME280;72099;43.176;76.872;2024-02-28T08:18:25;90712.69;;;6.14;34.66
82476;BME280;72099;43.176;76.872;2024-02-28T08:21:26;90715.44;;;6.45;34.71
82476;BME280;72099;43.176;76.872;2024-02-28T08:24:28;90717.44;;;6.62;34.60
82476;BME280;72099;43.176;76.872;2024-02-28T08:27:29;90673.22;;;6.65;34.73
82476;BME280;72099;43.176;76.872;2024-02-28T08:30:29;90711.03;;;7.04;34.50
82476;BME280;72099;43.176;76.872;2024-02-28T08:33:31;90710.13;;;6.86;34.28
82476;BME280;72099;43.176;76.872;2024-02-28T08:36:32;90713.81;;;6.35;34.01
82476;BME280;72099;43.176;76.872;2024-02-28T08:39:33;90709.84;;;6.10;34.16
82476;BME280;72099;43.176;76.872;2024-02-28T08:43:03;90700.69;;;5.99;34.90
82476;BME280;72099;43.176;76.872;2024-02-28T08:46:04;90698.31;;;5.56;34.86
82476;BME280;72099;43.176;76.872;2024-02-28T08:49:05;90708.19;;;5.73;35.02
82476;BME280;72099;43.176;76.872;2024-02-28T08:52:06;90707.34;;;5.91;35.33
82476;BME280;72099;43.176;76.872;2024-02-28T08:55:07;90697.56;;;6.11;35.18
82476;BME280;72099;43.176;76.872;2024-02-28T08:58:08;90709.63;;;6.48;34.37
82476;BME280;72099;43.176;76.872;2024-02-28T09:01:08;90708.63;;;6.71;34.73
82476;BME280;72099;43.176;76.872;2024-02-28T09:04:09;90704.59;;;6.88;34.39
82476;BME280;72099;43.176;76.872;2024-02-28T09:07:10;90707.16;;;7.01;33.96
82476;BME280;72099;43.176;76.872;2024-02-28T09:10:12;90706.63;;;6.91;33.72
82476;BME280;72099;43.176;76.872;2024-02-28T09:13:13;90717.09;;;7.13;33.26
82476;BME280;72099;43.176;76.872;2024-02-28T09:16:14;90707.94;;;7.02;33.88
82476;BME280;72099;43.176;76.872;2024-02-28T09:19:14;90701.94;;;6.79;33.51
82476;BME280;72099;43.176;76.872;2024-02-28T09:22:22;90714.03;;;6.39;33.46
82476;BME280;72099;43.176;76.872;2024-02-28T09:25:24;90722.03;;;5.74;34.02
82476;BME280;72099;43.176;76.872;2024-02-28T09:28:25;90733.47;;;5.13;34.87
82476;BME280;72099;43.176;76.872;2024-02-28T09:31:26;90727.38;;;4.85;36.48
82476;BME280;72099;43.176;76.872;2024-02-28T09:34:26;90739.47;;;4.38;36.71
82476;BME280;72099;43.176;76.872;2024-02-28T09:37:27;90739.75;;;3.94;36.85
82476;BME280;72099;43.176;76.872;2024-02-28T09:40:30;90728.09;;;3.86;37.47
82476;BME280;72099;43.176;76.872;2024-02-28T09:43:32;90741.66;;;3.83;37.41
82476;BME280;72099;43.176;76.872;2024-02-28T09:46:34;90736.44;;;3.59;37.62
82476;BME280;72099;43.176;76.872;2024-02-28T09:49:35;90739.25;;;3.39;37.65
82476;BME280;72099;43.176;76.872;2024-02-28T09:52:39;90731.13;;;3.16;38.59
82476;BME280;72099;43.176;76.872;2024-02-28T09:55:40;90732.63;;;3.22;38.51
82476;BME280;72099;43.176;76.872;2024-02-28T09:58:41;90724.19;;;3.36;38.57
82476;BME280;72099;43.176;76.872;2024-02-28T10:01:46;90729.88;;;3.38;38.00
82476;BME280;72099;43.176;76.872;2024-02-28T10:04:48;90755.09;;;3.37;38.56
82476;BME280;72099;43.176;76.872;2024-02-28T10:07:49;90743.41;;;3.40;39.32
82476;BME280;72099;43.176;76.872;2024-02-28T10:10:50;90738.00;;;3.31;39.25
82476;BME280;72099;43.176;76.872;2024-02-28T10:13:56;90744.09;;;2.87;39.91
82476;BME280;72099;43.176;76.872;2024-02-28T10:16:57;90754.75;;;2.42;40.63
82476;BME280;72099;43.176;76.872;2024-02-28T10:19:58;90763.34;;;2.37;40.81
82476;BME280;72099;43.176;76.872;2024-02-28T10:23:03;90759.72;;;2.38;40.62
82476;BME280;72099;43.176;76.872;2024-02-28T10:26:08;90760.84;;;2.17;41.93
82476;BME280;72099;43.176;76.872;2024-02-28T10:29:09;90761.66;;;2.07;42.68
82476;BME280;72099;43.176;76.872;2024-02-28T10:32:31;90766.31;;;2.15;43.00
82476;BME280;72099;43.176;76.872;2024-02-28T10:35:34;90762.47;;;2.02;43.44
82476;BME280;72099;43.176;76.872;2024-02-28T10:38:35;90765.06;;;2.02;43.77
82476;BME280;72099;43.176;76.872;2024-02-28T10:41:38;90762.47;;;1.97;44.09
82476;BME280;72099;43.176;76.872;2024-02-28T10:44:41;90761.97;;;1.90;44.53
82476;BME280;72099;43.176;76.872;2024-02-28T10:47:43;90767.94;;;1.96;44.59
82476;BME280;72099;43.176;76.872;2024-02-28T10:50:45;90768.72;;;1.91;44.82
82476;BME280;72099;43.176;76.872;2024-02-28T10:53:49;90762.28;;;1.68;45.47
82476;BME280;72099;43.176;76.872;2024-02-28T10:56:51;90766.22;;;1.51;46.33
82476;BME280;72099;43.176;76.872;2024-02-28T10:59:54;90773.25;;;1.40;46.25
82476;BME280;72099;43.176;76.872;2024-02-28T11:02:56;90762.63;;;1.36;46.35
82476;BME280;72099;43.176;76.872;2024-02-28T11:05:58;90764.72;;;1.34;46.90
82476;BME280;72099;43.176;76.872;2024-02-28T11:09:03;90742.16;;;1.30;46.84
82476;BME280;72099;43.176;76.872;2024-02-28T11:12:06;90758.47;;;1.40;47.26
82476;BME280;72099;43.176;76.872;2024-02-28T11:15:25;90760.53;;;1.48;47.44
82476;BME280;72099;43.176;76.872;2024-02-28T11:18:27;90758.75;;;1.44;47.48
82476;BME280;72099;43.176;76.872;2024-02-28T11:21:29;90744.50;;;1.31;47.61
82476;BME280;72099;43.176;76.872;2024-02-28T11:24:31;90762.09;;;1.50;47.44
82476;BME280;72099;43.176;76.872;2024-02-28T11:27:32;90755.09;;;1.30;47.96
82476;BME280;72099;43.176;76.872;2024-02-28T11:30:33;90761.06;;;1.45;48.43
82476;BME280;72099;43.176;76.872;2024-02-28T11:33:35;90762.59;;;1.52;48.99
82476;BME280;72099;43.176;76.872;2024-02-28T11:36:36;90757.97;;;1.38;48.78
82476;BME280;72099;43.176;76.872;2024-02-28T11:39:38;90755.66;;;1.16;49.59
82476;BME280;72099;43.176;76.872;2024-02-28T11:42:39;90776.63;;;1.15;49.78
82476;BME280;72099;43.176;76.872;2024-02-28T11:45:40;90770.41;;;0.91;49.76
82476;BME280;72099;43.176;76.872;2024-02-28T11:48:42;90777.16;;;0.81;50.46
82476;BME280;72099;43.176;76.872;2024-02-28T11:51:43;90773.78;;;0.81;50.90
82476;BME280;72099;43.176;76.872;2024-02-28T11:54:45;90773.78;;;0.86;51.35
82476;BME280;72099;43.176;76.872;2024-02-28T11:57:46;90768.59;;;0.76;51.26
82476;BME280;72099;43.176;76.872;2024-02-28T12:00:51;90774.78;;;0.65;51.70
82476;BME280;72099;43.176;76.872;2024-02-28T12:03:52;90782.78;;;0.48;52.20
82476;BME280;72099;43.176;76.872;2024-02-28T12:06:53;90779.63;;;0.25;52.19
82476;BME280;72099;43.176;76.872;2024-02-28T12:09:54;90777.16;;;-0.22;52.61
82476;BME280;72099;43.176;76.872;2024-02-28T12:12:59;90779.22;;;-0.66;53.24
82476;BME280;72099;43.176;76.872;2024-02-28T12:16:01;90784.28;;;-0.81;53.51
82476;BME280;72099;43.176;76.872;2024-02-28T12:19:09;90782.97;;;-0.89;53.98
82476;BME280;72099;43.176;76.872;2024-02-28T12:22:10;90785.38;;;-1.09;54.00
82476;BME280;72099;43.176;76.872;2024-02-28T12:25:11;90792.47;;;-1.27;54.49
82476;BME280;72099;43.176;76.872;2024-02-28T12:28:12;90789.53;;;-1.40;54.93
82476;BME280;72099;43.176;76.872;2024-02-28T12:31:13;90788.53;;;-1.61;55.11
82476;BME280;72099;43.176;76.872;2024-02-28T12:34:14;90794.59;;;-1.77;55.83
82476;BME280;72099;43.176;76.872;2024-02-28T12:37:15;90794.66;;;-1.94;56.67
82476;BME280;72099;43.176;76.872;2024-02-28T12:40:16;90794.47;;;-2.10;57.03
82476;BME280;72099;43.176;76.872;2024-02-28T12:43:17;90803.81;;;-2.25;57.18
82476;BME280;72099;43.176;76.872;2024-02-28T12:46:18;90796.53;;;-2.33;56.92
82476;BME280;72099;43.176;76.872;2024-02-28T12:49:19;90804.59;;;-2.47;57.91
82476;BME280;72099;43.176;76.872;2024-02-28T12:52:20;90785.53;;;-2.68;57.48
82476;BME280;72099;43.176;76.872;2024-02-28T12:55:21;90800.69;;;-2.71;58.29
82476;BME280;72099;43.176;76.872;2024-02-28T12:58:22;90795.69;;;-2.78;58.16
82476;BME280;72099;43.176;76.872;2024-02-28T13:01:25;90800.06;;;-2.78;58.51
82476;BME280;72099;43.176;76.872;2024-02-28T13:04:26;90795.53;;;-2.88;58.63
82476;BME280;72099;43.176;76.872;2024-02-28T13:07:28;90804.59;;;-3.02;59.05
82476;BME280;72099;43.176;76.872;2024-02-28T13:10:30;90811.84;;;-3.16;59.83
82476;BME280;72099;43.176;76.872;2024-02-28T13:13:34;90796.09;;;-3.36;60.30
82476;BME280;72099;43.176;76.872;2024-02-28T13:16:35;90798.28;;;-3.45;60.12
82476;BME280;72099;43.176;76.872;2024-02-28T13:19:36;90816.44;;;-3.35;59.99
82476;BME280;72099;43.176;76.872;2024-02-28T13:23:04;90812.09;;;-3.34;60.27
82476;BME280;72099;43.176;76.872;2024-02-28T13:26:05;90820.28;;;-3.37;61.33
82476;BME280;72099;43.176;76.872;2024-02-28T13:29:07;90814.78;;;-3.41;60.65
82476;BME280;72099;43.176;76.872;2024-02-28T13:32:07;90814.72;;;-3.46;60.67
82476;BME280;72099;43.176;76.872;2024-02-28T13:35:09;90810.47;;;-3.52;61.34
82476;BME280;72099;43.176;76.872;2024-02-28T13:38:10;90815.25;;;-3.61;62.24
82476;BME280;72099;43.176;76.872;2024-02-28T13:41:11;90810.63;;;-3.75;61.39
82476;BME280;72099;43.176;76.872;2024-02-28T13:44:12;90813.13;;;-3.92;62.89
82476;BME280;72099;43.176;76.872;2024-02-28T13:47:13;90814.75;;;-4.03;61.73
82476;BME280;72099;43.176;76.872;2024-02-28T13:50:14;90801.25;;;-4.10;63.21
82476;BME280;72099;43.176;76.872;2024-02-28T13:53:16;90809.22;;;-4.23;63.66
82476;BME280;72099;43.176;76.872;2024-02-28T13:56:16;90783.97;;;-4.55;62.96
82476;BME280;72099;43.176;76.872;2024-02-28T13:59:17;90799.25;;;-4.60;64.32
82476;BME280;72099;43.176;76.872;2024-02-28T14:02:18;90803.59;;;-4.72;63.99
82476;BME280;72099;43.176;76.872;2024-02-28T14:05:19;90793.13;;;-4.82;64.20
82476;BME280;72099;43.176;76.872;2024-02-28T14:08:20;90787.13;;;-4.88;64.20
82476;BME280;72099;43.176;76.872;2024-02-28T14:11:22;90763.94;;;-5.05;64.27
82476;BME280;72099;43.176;76.872;2024-02-28T14:14:23;90786.25;;;-4.93;64.67
82476;BME280;72099;43.176;76.872;2024-02-28T14:17:24;90793.94;;;-5.05;65.41
82476;BME280;72099;43.176;76.872;2024-02-28T14:20:25;90790.13;;;-5.14;65.68
82476;BME280;72099;43.176;76.872;2024-02-28T14:23:26;90788.69;;;-5.22;65.23
82476;BME280;72099;43.176;76.872;2024-02-28T14:26:27;90780.88;;;-5.27;65.41
82476;BME280;72099;43.176;76.872;2024-02-28T14:29:28;90789.59;;;-5.16;64.99
82476;BME280;72099;43.176;76.872;2024-02-28T14:32:42;90783.00;;;-5.12;65.13
82476;BME280;72099;43.176;76.872;2024-02-28T14:35:43;90778.97;;;-5.08;64.37
82476;BME280;72099;43.176;76.872;2024-02-28T14:38:44;90781.66;;;-5.15;64.71
82476;BME280;72099;43.176;76.872;2024-02-28T14:41:45;90776.63;;;-4.98;65.86
82476;BME280;72099;43.176;76.872;2024-02-28T14:44:46;90778.72;;;-4.60;65.74
82476;BME280;72099;43.176;76.872;2024-02-28T14:47:47;90784.75;;;-4.14;66.65
82476;BME280;72099;43.176;76.872;2024-02-28T14:50:48;90786.66;;;-3.93;67.87
82476;BME280;72099;43.176;76.872;2024-02-28T14:53:49;90774.59;;;-3.92;67.69
82476;BME280;72099;43.176;76.872;2024-02-28T14:56:49;90784.13;;;-4.04;66.56
82476;BME280;72099;43.176;76.872;2024-02-28T14:59:50;90778.44;;;-4.35;67.88
82476;BME280;72099;43.176;76.872;2024-02-28T15:02:51;90775.06;;;-4.24;68.12
82476;BME280;72099;43.176;76.872;2024-02-28T15:05:54;90784.81;;;-4.09;67.70
82476;BME280;72099;43.176;76.872;2024-02-28T15:08:55;90779.00;;;-4.04;68.02
82476;BME280;72099;43.176;76.872;2024-02-28T15:11:56;90779.06;;;-3.88;68.35
82476;BME280;72099;43.176;76.872;2024-02-28T15:14:57;90778.94;;;-3.93;68.94
82476;BME280;72099;43.176;76.872;2024-02-28T15:17:58;90779.41;;;-3.96;67.96
82476;BME280;72099;43.176;76.872;2024-02-28T15:21:01;90779.25;;;-4.18;68.63
82476;BME280;72099;43.176;76.872;2024-02-28T15:24:02;90762.16;;;-4.40;68.43
82476;BME280;72099;43.176;76.872;2024-02-28T15:27:04;90771.06;;;-4.43;67.87
82476;BME280;72099;43.176;76.872;2024-02-28T15:30:05;90771.25;;;-4.61;67.63
82476;BME280;72099;43.176;76.872;2024-02-28T15:33:07;90762.91;;;-4.68;68.28
82476;BME280;72099;43.176;76.872;2024-02-28T15:36:08;90756.00;;;-4.91;67.77
82476;BME280;72099;43.176;76.872;2024-02-28T15:39:09;90758.13;;;-5.00;67.83
82476;BME280;72099;43.176;76.872;2024-02-28T15:42:13;90739.84;;;-5.39;67.63
82476;BME280;72099;43.176;76.872;2024-02-28T15:45:14;90750.44;;;-5.35;68.10
82476;BME280;72099;43.176;76.872;2024-02-28T15:48:18;90750.00;;;-5.55;67.99
82476;BME280;72099;43.176;76.872;2024-02-28T15:51:19;90751.44;;;-5.48;68.25
82476;BME280;72099;43.176;76.872;2024-02-28T15:54:20;90741.09;;;-5.41;68.05
82476;BME280;72099;43.176;76.872;2024-02-28T15:57:21;90739.97;;;-5.45;68.26